F/V Frisby — FGLS — position and weather

sailwx.info

Track history (hours):
 
Tides and Currents Weather Stations Pressure Air Temp Water Temp Dewpoint Dewpoint Depression Visibility Wind Speed Wind Dir Waves Ship Positions

F/V Frisby

Last reported at 2017-Sep-21 14:40 UTC. Time now 2017-Sep-21 23:14 UTC.
Position N 45°58' W 001°35'.

Length 16 m.

Type: Fishing. MMSI: 228117000.

Date/timePositionNaut miles runAvg speedWind from/ knotsBaromVisibWave heightAir tempDewpointWater temp
2017-Sep-21 14:40N 45°58' W 001°35'1 2.8
2017-Sep-21 14:26N 45°59' W 001°35'2 3.1
2017-Sep-21 13:57N 46°00' W 001°36'1 2.1
2017-Sep-21 13:15N 46°01' W 001°38'0 1.6
2017-Sep-21 12:57N 46°01' W 001°37'1 3.1
2017-Sep-21 12:30N 46°00' W 001°36'1 2.7
2017-Sep-21 12:01N 46°02' W 001°35'1 2.5
2017-Sep-21 11:30N 46°03' W 001°35'2 3.0
2017-Sep-21 10:50N 46°04' W 001°37'1 3.3
2017-Sep-21 10:30N 46°04' W 001°39'2 3.4
2017-Sep-21 10:00N 46°03' W 001°39'2 3.7
2017-Sep-21 09:30N 46°01' W 001°37'1 1.4
2017-Sep-21 09:00N 46°01' W 001°36'2 3.2
2017-Sep-21 08:30N 46°03' W 001°37'1 3.0
2017-Sep-21 08:00N 46°04' W 001°38'1 1.5
2017-Sep-21 07:30N 46°04' W 001°39'2 3.4
2017-Sep-21 07:00N 46°02' W 001°38'2 3.6
2017-Sep-21 06:30N 46°01' W 001°36'1 3.0
2017-Sep-21 06:01N 45°60' W 001°36'1 2.3
2017-Sep-21 05:31N 45°59' W 001°35'1 2.5
2017-Sep-21 05:00N 45°58' W 001°35'2 3.2
2017-Sep-21 04:30N 45°56' W 001°35'2 3.2
2017-Sep-21 03:59N 45°54' W 001°35'2 3.2
2017-Sep-21 03:31N 45°53' W 001°36'2 3.3
2017-Sep-21 03:00N 45°52' W 001°38'2 2.7
2017-Sep-21 02:27N 45°53' W 001°39'1 3.1
2017-Sep-21 01:59N 45°54' W 001°41'1 2.7
2017-Sep-21 01:30N 45°55' W 001°42'1 2.5
2017-Sep-21 00:57N 45°54' W 001°41'2 2.9
2017-Sep-21 00:22N 45°53' W 001°39'1 3.4
2017-Sep-21 00:00N 45°52' W 001°41'2 3.6
2017-Sep-20 23:30N 45°51' W 001°43'1 1.9
2017-Sep-20 23:01N 45°52' W 001°43'1 2.8
2017-Sep-20 22:30N 45°53' W 001°41'1 1.6
2017-Sep-20 21:49N 45°54' W 001°42'1 3.1
2017-Sep-20 21:30N 45°55' W 001°42'1 1.9
2017-Sep-20 21:00N 45°56' W 001°41'2 2.7
2017-Sep-20 20:06N 45°56' W 001°38'0 3.3
2017-Sep-20 20:00N 45°56' W 001°37'2 3.2
2017-Sep-20 19:30N 45°57' W 001°36'2 2.8
2017-Sep-20 18:57N 45°59' W 001°35'2 3.3
2017-Sep-20 18:27N 46°00' W 001°36'3 3.1
2017-Sep-20 17:35N 46°02' W 001°38'0 2.6
2017-Sep-20 17:25N 46°03' W 001°38'1 1.3
2017-Sep-20 16:58N 46°03' W 001°39'1 3.2
2017-Sep-20 16:30N 46°05' W 001°39'1 2.1
2017-Sep-20 15:58N 46°04' W 001°37'1 2.8
2017-Sep-20 15:27N 46°03' W 001°36'2 2.8
2017-Sep-20 14:52N 46°02' W 001°34'2 1.9
2017-Sep-20 14:00N 46°01' W 001°33'1 2.7
2017-Sep-20 13:29N 46°02' W 001°31'0 0.9
2017-Sep-20 12:59N 46°02' W 001°32'2 3.0
2017-Sep-20 12:26N 46°03' W 001°33'1 2.9
2017-Sep-20 12:00N 46°04' W 001°35'3 3.3
2017-Sep-20 11:10N 46°05' W 001°38'1 3.2
2017-Sep-20 10:48N 46°04' W 001°39'1 3.2
2017-Sep-20 10:30N 46°03' W 001°38'2 3.2
2017-Sep-20 10:00N 46°02' W 001°36'2 3.5
2017-Sep-20 09:28N 46°01' W 001°34'1 1.7
2017-Sep-20 08:56N 46°01' W 001°33'1 2.8
2017-Sep-20 08:29N 46°02' W 001°32'2 2.9
2017-Sep-20 07:57N 46°03' W 001°34'1 2.5
2017-Sep-20 07:30N 46°03' W 001°35'1 2.0
2017-Sep-20 06:58N 46°03' W 001°37'1 1.9
2017-Sep-20 06:28N 46°02' W 001°37'2 3.2
2017-Sep-20 05:57N 46°01' W 001°36'2 3.4
2017-Sep-20 05:24N 46°00' W 001°33'4 5.4
2017-Sep-20 04:38N 45°58' W 001°29'1 7.7
2017-Sep-20 04:28N 45°57' W 001°27'4 7.8
2017-Sep-20 04:00N 45°55' W 001°23'2 4.4
2017-Sep-20 03:30N 45°55' W 001°20'0 0.0
2017-Sep-20 02:57N 45°55' W 001°20'0 0.0
2017-Sep-20 02:29N 45°55' W 001°20'1 1.5
2017-Sep-20 01:55N 45°54' W 001°20'15 1.2
2017-Sep-19 14:00N 46°03' W 001°37'1 2.8
2017-Sep-19 13:29N 46°04' W 001°35'3 1.7
2017-Sep-19 11:42N 46°01' W 001°36'12 0.4
2017-Sep-18 02:02N 45°52' W 001°25'3 9.9
2017-Sep-18 01:46N 45°53' W 001°22'2 7.4
2017-Sep-18 01:30N 45°55' W 001°20'0 0.1
2017-Sep-18 00:43N 45°55' W 001°20'0 0.6
2017-Sep-18 00:30N 45°55' W 001°20'0 0.0
2017-Sep-18 00:00N 45°55' W 001°20'0 0.2
2017-Sep-17 23:19N 45°55' W 001°20'20 3.6
2017-Sep-17 17:51N 46°08' W 001°41'3 3.0
2017-Sep-17 16:57N 46°10' W 001°42'1 3.0
2017-Sep-17 16:30N 46°11' W 001°43'2 3.0
2017-Sep-17 15:50N 46°13' W 001°45'1 2.3
2017-Sep-17 15:30N 46°12' W 001°45'1 0.6
2017-Sep-17 13:22N 46°11' W 001°45'1 2.9
2017-Sep-17 12:57N 46°12' W 001°46'1 1.3
2017-Sep-17 11:50N 46°12' W 001°44'1 2.8
2017-Sep-17 11:30N 46°11' W 001°43'3 2.8
2017-Sep-17 10:21N 46°09' W 001°40'0 0.5
2017-Sep-17 10:00N 46°08' W 001°40'2 3.1
2017-Sep-17 09:25N 46°09' W 001°42'3 3.0
2017-Sep-17 08:26N 46°12' W 001°45'1 0.8
2017-Sep-17 07:21N 46°12' W 001°43'1 2.9
2017-Sep-17 07:00N 46°11' W 001°43'2 3.0
2017-Sep-17 06:28N 46°10' W 001°41'0 0.3
2017-Sep-17 06:00N 46°10' W 001°41'2 3.0
2017-Sep-17 05:28N 46°11' W 001°42'1 3.1
2017-Sep-17 05:00N 46°12' W 001°43'2 3.1
2017-Sep-17 04:31N 46°14' W 001°44'2 3.3
2017-Sep-17 04:00N 46°15' W 001°45'2 3.3
2017-Sep-17 03:30N 46°17' W 001°46'2 3.2
2017-Sep-17 03:00N 46°18' W 001°48'2 3.2
2017-Sep-17 02:31N 46°19' W 001°49'1 2.2
2017-Sep-17 02:00N 46°18' W 001°48'1 2.8
2017-Sep-17 01:30N 46°17' W 001°47'1 2.8
2017-Sep-17 01:00N 46°19' W 001°46'2 3.4
2017-Sep-17 00:30N 46°20' W 001°47'2 3.4
2017-Sep-17 00:00N 46°22' W 001°48'1 2.9
2017-Sep-16 23:31N 46°21' W 001°50'2 3.3
2017-Sep-16 23:00N 46°20' W 001°49'2 3.5
2017-Sep-16 22:30N 46°18' W 001°48'1 1.2
2017-Sep-16 22:00N 46°18' W 001°48'2 3.2
2017-Sep-16 21:30N 46°16' W 001°47'2 3.2
2017-Sep-16 21:00N 46°15' W 001°47'2 2.9
2017-Sep-16 20:28N 46°13' W 001°45'4 2.9
2017-Sep-16 19:04N 46°10' W 001°43'0 2.6
2017-Sep-16 18:58N 46°10' W 001°43'1 2.6
2017-Sep-16 18:30N 46°11' W 001°43'1 0.7
2017-Sep-16 17:49N 46°11' W 001°44'1 3.1
2017-Sep-16 17:24N 46°10' W 001°43'2 3.1
2017-Sep-16 16:42N 46°09' W 001°41'2 3.2
2017-Sep-16 16:10N 46°07' W 001°40'5 2.1
2017-Sep-16 13:46N 46°10' W 001°46'1 3.3
2017-Sep-16 13:30N 46°11' W 001°46'2 2.0
2017-Sep-16 12:28N 46°11' W 001°43'2 3.3
2017-Sep-16 11:45N 46°09' W 001°41'2 3.1
2017-Sep-16 11:07N 46°07' W 001°40'2 0.7
2017-Sep-16 08:22N 46°08' W 001°42'1 3.0
2017-Sep-16 08:00N 46°09' W 001°43'3 3.0
2017-Sep-16 07:02N 46°11' W 001°45'0 3.2
2017-Sep-16 06:56N 46°11' W 001°45'1 3.3
2017-Sep-16 06:30N 46°13' W 001°46'1 1.5
2017-Sep-16 06:00N 46°13' W 001°47'1 2.4
2017-Sep-16 05:30N 46°13' W 001°45'3 3.1
2017-Sep-16 04:38N 46°11' W 001°43'0 3.1
2017-Sep-16 04:30N 46°11' W 001°43'2 3.2
2017-Sep-16 03:46N 46°09' W 001°41'1 3.2
2017-Sep-16 03:23N 46°08' W 001°40'1 3.1
2017-Sep-16 03:00N 46°07' W 001°39'4 4.0
2017-Sep-16 02:00N 46°04' W 001°36'14 8.8
2017-Sep-16 00:23N 45°54' W 001°20'1 0.3
2017-Sep-15 22:40N 45°55' W 001°20'1 5.5
2017-Sep-15 22:30N 45°54' W 001°20'12 0.7
2017-Sep-15 06:59N 45°56' W 001°37'11 1.3
2017-Sep-14 22:23N 45°53' W 001°21'2 0.1
2017-Sep-14 02:41N 45°55' W 001°20'0 0.0
2017-Sep-14 02:13N 45°55' W 001°20'0 0.0
2017-Sep-14 01:26N 45°55' W 001°20'0 0.0
2017-Sep-14 00:58N 45°55' W 001°20'0 0.0
2017-Sep-13 17:22N 45°55' W 001°20'0 0.0
2017-Sep-13 16:46N 45°55' W 001°20'0 0.0
2017-Sep-13 14:32N 45°55' W 001°20'0 0.0
2017-Sep-13 14:24N 45°55' W 001°20'0 0.0
2017-Sep-13 12:33N 45°55' W 001°20'0 0.0
2017-Sep-13 10:34N 45°55' W 001°20'0 0.0
2017-Sep-13 10:23N 45°55' W 001°20'0 0.0
2017-Sep-13 10:00N 45°55' W 001°20'0 0.0
2017-Sep-13 09:28N 45°55' W 001°20'0 0.0
2017-Sep-13 09:00N 45°55' W 001°20'0 0.0
2017-Sep-13 08:30N 45°55' W 001°20'0 0.0
2017-Sep-13 07:57N 45°55' W 001°20'0 0.0
2017-Sep-13 07:30N 45°55' W 001°20'0 0.0
2017-Sep-13 06:49N 45°55' W 001°20'0 0.0
2017-Sep-13 06:26N 45°55' W 001°20'0 0.0
2017-Sep-13 05:49N 45°55' W 001°20'0 0.0
2017-Sep-13 05:30N 45°55' W 001°20'0 0.0
2017-Sep-13 04:59N 45°55' W 001°20'0 0.0
2017-Sep-13 04:29N 45°55' W 001°20'0 0.0
2017-Sep-13 00:15N 45°55' W 001°20'0 0.0
2017-Sep-12 23:59N 45°55' W 001°20'0 0.0
2017-Sep-12 23:29N 45°55' W 001°20'0 0.0
2017-Sep-12 23:00N 45°55' W 001°20'0 0.0
2017-Sep-12 22:30N 45°55' W 001°20'0 0.0
2017-Sep-12 20:30N 45°55' W 001°20'0 0.0
2017-Sep-12 19:58N 45°55' W 001°20'0 0.0
2017-Sep-12 07:16N 45°55' W 001°20'0 0.0
2017-Sep-12 06:45N 45°55' W 001°20'0 0.0
2017-Sep-12 06:17N 45°55' W 001°20'0 0.0
2017-Sep-11 21:23N 45°55' W 001°20'0 0.0
2017-Sep-11 20:55N 45°55' W 001°20'  
Track history (hours):
 
Tides and Currents Weather Stations Pressure Air Temp Water Temp Dewpoint Dewpoint Depression Visibility Wind Speed Wind Dir Waves Ship Positions

F/V Frisby

Last reported at 2017-Sep-21 14:40 UTC. Time now 2017-Sep-21 23:14 UTC.
Position N 45°58' W 001°35'.

Length 16 m.

Type: Fishing. MMSI: 228117000.

Date/timePositionNaut miles runAvg speedWind from/ knotsBaromVisibWave heightAir tempDewpointWater temp
2017-Sep-21 14:40N 45°58' W 001°35'1 2.8
2017-Sep-21 14:26N 45°59' W 001°35'2 3.1
2017-Sep-21 13:57N 46°00' W 001°36'1 2.1
2017-Sep-21 13:15N 46°01' W 001°38'0 1.6
2017-Sep-21 12:57N 46°01' W 001°37'1 3.1
2017-Sep-21 12:30N 46°00' W 001°36'1 2.7
2017-Sep-21 12:01N 46°02' W 001°35'1 2.5
2017-Sep-21 11:30N 46°03' W 001°35'2 3.0
2017-Sep-21 10:50N 46°04' W 001°37'1 3.3
2017-Sep-21 10:30N 46°04' W 001°39'2 3.4
2017-Sep-21 10:00N 46°03' W 001°39'2 3.7
2017-Sep-21 09:30N 46°01' W 001°37'1 1.4
2017-Sep-21 09:00N 46°01' W 001°36'2 3.2
2017-Sep-21 08:30N 46°03' W 001°37'1 3.0
2017-Sep-21 08:00N 46°04' W 001°38'1 1.5
2017-Sep-21 07:30N 46°04' W 001°39'2 3.4
2017-Sep-21 07:00N 46°02' W 001°38'2 3.6
2017-Sep-21 06:30N 46°01' W 001°36'1 3.0
2017-Sep-21 06:01N 45°60' W 001°36'1 2.3
2017-Sep-21 05:31N 45°59' W 001°35'1 2.5
2017-Sep-21 05:00N 45°58' W 001°35'2 3.2
2017-Sep-21 04:30N 45°56' W 001°35'2 3.2
2017-Sep-21 03:59N 45°54' W 001°35'2 3.2
2017-Sep-21 03:31N 45°53' W 001°36'2 3.3
2017-Sep-21 03:00N 45°52' W 001°38'2 2.7
2017-Sep-21 02:27N 45°53' W 001°39'1 3.1
2017-Sep-21 01:59N 45°54' W 001°41'1 2.7
2017-Sep-21 01:30N 45°55' W 001°42'1 2.5
2017-Sep-21 00:57N 45°54' W 001°41'2 2.9
2017-Sep-21 00:22N 45°53' W 001°39'1 3.4
2017-Sep-21 00:00N 45°52' W 001°41'2 3.6
2017-Sep-20 23:30N 45°51' W 001°43'1 1.9
2017-Sep-20 23:01N 45°52' W 001°43'1 2.8
2017-Sep-20 22:30N 45°53' W 001°41'1 1.6
2017-Sep-20 21:49N 45°54' W 001°42'1 3.1
2017-Sep-20 21:30N 45°55' W 001°42'1 1.9
2017-Sep-20 21:00N 45°56' W 001°41'2 2.7
2017-Sep-20 20:06N 45°56' W 001°38'0 3.3
2017-Sep-20 20:00N 45°56' W 001°37'2 3.2
2017-Sep-20 19:30N 45°57' W 001°36'2 2.8
2017-Sep-20 18:57N 45°59' W 001°35'2 3.3
2017-Sep-20 18:27N 46°00' W 001°36'3 3.1
2017-Sep-20 17:35N 46°02' W 001°38'0 2.6
2017-Sep-20 17:25N 46°03' W 001°38'1 1.3
2017-Sep-20 16:58N 46°03' W 001°39'1 3.2
2017-Sep-20 16:30N 46°05' W 001°39'1 2.1
2017-Sep-20 15:58N 46°04' W 001°37'1 2.8
2017-Sep-20 15:27N 46°03' W 001°36'2 2.8
2017-Sep-20 14:52N 46°02' W 001°34'2 1.9
2017-Sep-20 14:00N 46°01' W 001°33'1 2.7
2017-Sep-20 13:29N 46°02' W 001°31'0 0.9
2017-Sep-20 12:59N 46°02' W 001°32'2 3.0
2017-Sep-20 12:26N 46°03' W 001°33'1 2.9
2017-Sep-20 12:00N 46°04' W 001°35'3 3.3
2017-Sep-20 11:10N 46°05' W 001°38'1 3.2
2017-Sep-20 10:48N 46°04' W 001°39'1 3.2
2017-Sep-20 10:30N 46°03' W 001°38'2 3.2
2017-Sep-20 10:00N 46°02' W 001°36'2 3.5
2017-Sep-20 09:28N 46°01' W 001°34'1 1.7
2017-Sep-20 08:56N 46°01' W 001°33'1 2.8
2017-Sep-20 08:29N 46°02' W 001°32'2 2.9
2017-Sep-20 07:57N 46°03' W 001°34'1 2.5
2017-Sep-20 07:30N 46°03' W 001°35'1 2.0
2017-Sep-20 06:58N 46°03' W 001°37'1 1.9
2017-Sep-20 06:28N 46°02' W 001°37'2 3.2
2017-Sep-20 05:57N 46°01' W 001°36'2 3.4
2017-Sep-20 05:24N 46°00' W 001°33'4 5.4
2017-Sep-20 04:38N 45°58' W 001°29'1 7.7
2017-Sep-20 04:28N 45°57' W 001°27'4 7.8
2017-Sep-20 04:00N 45°55' W 001°23'2 4.4
2017-Sep-20 03:30N 45°55' W 001°20'0 0.0
2017-Sep-20 02:57N 45°55' W 001°20'0 0.0
2017-Sep-20 02:29N 45°55' W 001°20'1 1.5
2017-Sep-20 01:55N 45°54' W 001°20'15 1.2
2017-Sep-19 14:00N 46°03' W 001°37'1 2.8
2017-Sep-19 13:29N 46°04' W 001°35'3 1.7
2017-Sep-19 11:42N 46°01' W 001°36'12 0.4
2017-Sep-18 02:02N 45°52' W 001°25'3 9.9
2017-Sep-18 01:46N 45°53' W 001°22'2 7.4
2017-Sep-18 01:30N 45°55' W 001°20'0 0.1
2017-Sep-18 00:43N 45°55' W 001°20'0 0.6
2017-Sep-18 00:30N 45°55' W 001°20'0 0.0
2017-Sep-18 00:00N 45°55' W 001°20'0 0.2
2017-Sep-17 23:19N 45°55' W 001°20'20 3.6
2017-Sep-17 17:51N 46°08' W 001°41'3 3.0
2017-Sep-17 16:57N 46°10' W 001°42'1 3.0
2017-Sep-17 16:30N 46°11' W 001°43'2 3.0
2017-Sep-17 15:50N 46°13' W 001°45'1 2.3
2017-Sep-17 15:30N 46°12' W 001°45'1 0.6
2017-Sep-17 13:22N 46°11' W 001°45'1 2.9
2017-Sep-17 12:57N 46°12' W 001°46'1 1.3
2017-Sep-17 11:50N 46°12' W 001°44'1 2.8
2017-Sep-17 11:30N 46°11' W 001°43'3 2.8
2017-Sep-17 10:21N 46°09' W 001°40'0 0.5
2017-Sep-17 10:00N 46°08' W 001°40'2 3.1
2017-Sep-17 09:25N 46°09' W 001°42'3 3.0
2017-Sep-17 08:26N 46°12' W 001°45'1 0.8
2017-Sep-17 07:21N 46°12' W 001°43'1 2.9
2017-Sep-17 07:00N 46°11' W 001°43'2 3.0
2017-Sep-17 06:28N 46°10' W 001°41'0 0.3
2017-Sep-17 06:00N 46°10' W 001°41'2 3.0
2017-Sep-17 05:28N 46°11' W 001°42'1 3.1
2017-Sep-17 05:00N 46°12' W 001°43'2 3.1
2017-Sep-17 04:31N 46°14' W 001°44'2 3.3
2017-Sep-17 04:00N 46°15' W 001°45'2 3.3
2017-Sep-17 03:30N 46°17' W 001°46'2 3.2
2017-Sep-17 03:00N 46°18' W 001°48'2 3.2
2017-Sep-17 02:31N 46°19' W 001°49'1 2.2
2017-Sep-17 02:00N 46°18' W 001°48'1 2.8
2017-Sep-17 01:30N 46°17' W 001°47'1 2.8
2017-Sep-17 01:00N 46°19' W 001°46'2 3.4
2017-Sep-17 00:30N 46°20' W 001°47'2 3.4
2017-Sep-17 00:00N 46°22' W 001°48'1 2.9
2017-Sep-16 23:31N 46°21' W 001°50'2 3.3
2017-Sep-16 23:00N 46°20' W 001°49'2 3.5
2017-Sep-16 22:30N 46°18' W 001°48'1 1.2
2017-Sep-16 22:00N 46°18' W 001°48'2 3.2
2017-Sep-16 21:30N 46°16' W 001°47'2 3.2
2017-Sep-16 21:00N 46°15' W 001°47'2 2.9
2017-Sep-16 20:28N 46°13' W 001°45'4 2.9
2017-Sep-16 19:04N 46°10' W 001°43'0 2.6
2017-Sep-16 18:58N 46°10' W 001°43'1 2.6
2017-Sep-16 18:30N 46°11' W 001°43'1 0.7
2017-Sep-16 17:49N 46°11' W 001°44'1 3.1
2017-Sep-16 17:24N 46°10' W 001°43'2 3.1
2017-Sep-16 16:42N 46°09' W 001°41'2 3.2
2017-Sep-16 16:10N 46°07' W 001°40'5 2.1
2017-Sep-16 13:46N 46°10' W 001°46'1 3.3
2017-Sep-16 13:30N 46°11' W 001°46'2 2.0
2017-Sep-16 12:28N 46°11' W 001°43'2 3.3
2017-Sep-16 11:45N 46°09' W 001°41'2 3.1
2017-Sep-16 11:07N 46°07' W 001°40'2 0.7
2017-Sep-16 08:22N 46°08' W 001°42'1 3.0
2017-Sep-16 08:00N 46°09' W 001°43'3 3.0
2017-Sep-16 07:02N 46°11' W 001°45'0 3.2
2017-Sep-16 06:56N 46°11' W 001°45'1 3.3
2017-Sep-16 06:30N 46°13' W 001°46'1 1.5
2017-Sep-16 06:00N 46°13' W 001°47'1 2.4
2017-Sep-16 05:30N 46°13' W 001°45'3 3.1
2017-Sep-16 04:38N 46°11' W 001°43'0 3.1
2017-Sep-16 04:30N 46°11' W 001°43'2 3.2
2017-Sep-16 03:46N 46°09' W 001°41'1 3.2
2017-Sep-16 03:23N 46°08' W 001°40'1 3.1
2017-Sep-16 03:00N 46°07' W 001°39'4 4.0
2017-Sep-16 02:00N 46°04' W 001°36'14 8.8
2017-Sep-16 00:23N 45°54' W 001°20'1 0.3
2017-Sep-15 22:40N 45°55' W 001°20'1 5.5
2017-Sep-15 22:30N 45°54' W 001°20'12 0.7
2017-Sep-15 06:59N 45°56' W 001°37'11 1.3
2017-Sep-14 22:23N 45°53' W 001°21'2 0.1
2017-Sep-14 02:41N 45°55' W 001°20'0 0.0
2017-Sep-14 02:13N 45°55' W 001°20'0 0.0
2017-Sep-14 01:26N 45°55' W 001°20'0 0.0
2017-Sep-14 00:58N 45°55' W 001°20'0 0.0
2017-Sep-13 17:22N 45°55' W 001°20'0 0.0
2017-Sep-13 16:46N 45°55' W 001°20'0 0.0
2017-Sep-13 14:32N 45°55' W 001°20'0 0.0
2017-Sep-13 14:24N 45°55' W 001°20'0 0.0
2017-Sep-13 12:33N 45°55' W 001°20'0 0.0
2017-Sep-13 10:34N 45°55' W 001°20'0 0.0
2017-Sep-13 10:23N 45°55' W 001°20'0 0.0
2017-Sep-13 10:00N 45°55' W 001°20'0 0.0
2017-Sep-13 09:28N 45°55' W 001°20'0 0.0
2017-Sep-13 09:00N 45°55' W 001°20'0 0.0
2017-Sep-13 08:30N 45°55' W 001°20'0 0.0
2017-Sep-13 07:57N 45°55' W 001°20'0 0.0
2017-Sep-13 07:30N 45°55' W 001°20'0 0.0
2017-Sep-13 06:49N 45°55' W 001°20'0 0.0
2017-Sep-13 06:26N 45°55' W 001°20'0 0.0
2017-Sep-13 05:49N 45°55' W 001°20'0 0.0
2017-Sep-13 05:30N 45°55' W 001°20'0 0.0
2017-Sep-13 04:59N 45°55' W 001°20'0 0.0
2017-Sep-13 04:29N 45°55' W 001°20'0 0.0
2017-Sep-13 00:15N 45°55' W 001°20'0 0.0
2017-Sep-12 23:59N 45°55' W 001°20'0 0.0
2017-Sep-12 23:29N 45°55' W 001°20'0 0.0
2017-Sep-12 23:00N 45°55' W 001°20'0 0.0
2017-Sep-12 22:30N 45°55' W 001°20'0 0.0
2017-Sep-12 20:30N 45°55' W 001°20'0 0.0
2017-Sep-12 19:58N 45°55' W 001°20'0 0.0
2017-Sep-12 07:16N 45°55' W 001°20'0 0.0
2017-Sep-12 06:45N 45°55' W 001°20'0 0.0
2017-Sep-12 06:17N 45°55' W 001°20'0 0.0
2017-Sep-11 21:23N 45°55' W 001°20'0 0.0
2017-Sep-11 20:55N 45°55' W 001°20'  

Dump ship's entire track history